イースター島 の空港の天気 - METARとTAF

マタベリ国際空港 ( SCIP / IPC ) - チリ イースター島
飛行場実況気象(Metar)
観測時間07/15 05:00 EAT (07/15 11:00 UTC)
風向・風速西 4m/s
視程10km以上
天気現象
全天の8割程度の雲 雲底高度 910m
気温17℃
湿度72%
気圧1020hPa
METARSCIP 151100Z 27008KT 9999 BKN030 17/12 Q1020 NOSIG
過去の天気等 Google飛行場航空写真 Wunderground天気予報

過去48時間のMETAR

飛行場予報(TAF)
発表時間: 7/15 04:30 EAT (7/15 10:30 UTC)
予報対象時間: 15日6時 EAT ~ 16日6時 EAT
風向・風速南西 3m/s
視程10km以上
全天の4割程度の雲 雲底高度 760m
15日8時 EAT ~ 15日10時 EAT に徐々に
風向・風速南西 5m/s
15日19時 EAT ~ 16日6時 EAT に一時的に
視程7000m
天気現象弱いしゅう雨
全天の4割程度の雲 雲底高度 460m
全天の8割程度の雲 雲底高度 910m
TAF SCIP 151030Z 1512/1612 22005KT 9999 SCT025 TN16/1607Z TX21/1518Z
BECMG 1514/1516 22010KT
TEMPO 1601/1612 7000 -SHRA SCT015 BKN030